Date,TemperatureHighF,TemperatureAvgF,TemperatureLowF,DewpointHighF,DewpointAvgF,DewpointLowF,HumidityHigh,HumidityAvg,HumidityLow,PressureMaxIn,PressureMinIn,WindSpeedMaxMPH,WindSpeedAvgMPH,GustSpeedMaxMPH,PrecipitationSumIn
2014-1-1,31.5,30.1,25.4,29.4,28.0,23.1,93,91,90,29.58,29.46,5,0,5,0.00
2014-1-2,38.2,32.1,28.8,32.7,29.1,26.6,93,89,78,29.48,28.95,6,1,6,0.07
2014-1-3,50.9,40.7,29.0,35.6,25.4,20.0,94,57,31,29.40,28.95,19,4,19,0.01
2014-1-4,47.9,31.8,24.1,26.3,22.0,18.7,82,68,37,29.56,29.40,7,2,7,0.00
2014-1-5,44.8,29.0,20.9,28.3,21.0,17.0,87,73,48,29.74,29.56,5,1,5,0.00
2014-1-6,36.7,26.5,18.9,25.0,20.5,15.6,90,78,59,29.63,29.32,4,0,4,0.00
2014-1-7,38.7,30.8,26.3,28.2,23.6,21.5,86,75,56,29.32,29.19,5,0,5,0.00
2014-1-8,30.6,27.8,22.9,27.8,24.8,20.3,92,88,85,29.21,28.87,3,0,3,0.00
2014-1-9,35.3,27.5,18.5,31.0,24.7,16.0,93,89,81,29.06,28.83,5,1,5,0.03
2014-1-10,59.4,44.5,31.7,36.8,33.7,29.3,93,68,38,29.02,28.80,11,2,11,0.07
2014-1-11,61.2,42.0,35.1,39.6,34.7,29.9,94,78,34,28.80,28.47,14,2,14,0.14
2014-1-12,50.4,42.1,34.7,38.1,34.2,30.9,89,74,58,29.20,28.72,14,3,15,0.01
2014-1-13,59.8,44.6,34.4,40.4,34.4,30.3,89,70,41,29.50,29.19,17,3,17,0.00
2014-1-14,56.9,43.8,35.5,39.7,35.3,31.8,88,73,50,29.72,29.58,10,4,12,0.00
2014-1-15,62.6,41.7,31.9,40.5,32.7,28.8,89,72,41,29.67,29.51,12,3,13,0.00
2014-1-16,46.3,34.1,26.1,37.4,29.5,23.9,93,84,63,29.68,29.54,8,1,8,0.00
2014-1-17,38.9,32.7,26.3,33.3,29.9,24.0,94,89,79,29.57,29.50,5,1,5,0.01
2014-1-18,33.5,32.3,31.3,30.7,29.6,28.3,92,90,88,29.53,29.39,5,1,5,0.00
2014-1-20,32.9,31.3,30.2,28.2,27.1,26.0,86,84,81,29.69,29.62,6,1,6,0.00
2014-1-21,32.8,30.4,28.6,26.8,25.9,24.7,87,83,78,29.63,29.49,4,1,4,0.00
2014-1-22,36.9,32.0,28.8,29.2,27.0,24.8,87,82,73,29.66,29.48,8,2,8,0.00
2014-1-23,32.9,30.9,25.6,29.4,27.5,22.8,91,87,83,29.76,29.65,7,1,7,0.00
2014-1-24,33.1,31.6,30.6,30.3,28.8,28.1,93,89,84,29.79,29.69,5,0,5,0.00
2014-1-25,32.9,31.4,30.2,28.8,27.3,26.1,89,85,79,29.70,29.48,4,0,4,0.00
2014-1-26,33.1,30.9,30.1,27.0,25.9,25.3,85,81,76,29.49,29.41,6,1,6,0.00
2014-1-27,37.6,33.0,30.1,29.4,27.2,24.9,83,79,71,29.55,29.44,5,1,5,0.00
2014-1-28,36.2,33.6,31.3,29.6,28.5,27.8,90,81,75,29.53,29.22,7,2,7,0.01
2014-1-29,43.7,31.8,26.6,36.2,28.7,24.2,94,88,66,29.22,28.82,7,0,7,0.27
2014-1-30,40.5,30.3,23.6,33.3,27.1,21.6,93,88,71,29.05,28.90,11,1,11,0.07
2014-1-31,47.0,33.3,27.5,35.9,27.4,23.0,93,80,51,29.26,29.05,6,1,6,0.03
2014-2-1,36.9,27.8,22.0,25.5,20.4,16.3,91,75,51,29.33,29.25,8,1,8,0.00
2014-2-2,34.6,27.7,22.1,25.0,21.4,17.5,86,77,63,29.27,29.09,5,1,5,0.00
2014-2-3,31.9,28.1,25.6,24.3,20.1,14.9,88,73,50,29.35,29.11,10,2,10,0.00
2014-2-4,27.4,23.9,18.4,18.6,15.9,5.7,86,71,50,29.66,29.35,10,2,10,0.00
2014-2-5,24.1,13.4,3.8,6.6,-0.8,-6.8,73,55,29,29.76,29.62,13,2,13,0.00
2014-2-6,21.2,10.4,0.5,10.1,2.3,-3.9,86,71,45,29.62,29.00,7,1,7,0.00
2014-2-7,29.9,17.1,6.8,15.5,9.3,2.5,86,73,48,29.11,28.99,12,2,12,0.04
2014-2-8,34.4,22.5,16.4,18.8,14.2,10.7,89,72,46,29.32,29.09,11,2,11,0.01
2014-2-9,40.9,25.5,20.7,27.7,20.5,17.6,90,82,55,29.33,29.17,3,0,3,0.13
2014-2-10,36.4,26.9,22.5,26.7,22.0,19.3,89,82,62,29.35,29.14,7,1,7,0.13
2014-2-11,40.7,31.6,25.6,30.2,26.2,22.5,91,81,63,29.25,28.88,16,2,16,0.09
2014-2-12,58.5,40.4,29.9,40.4,32.5,27.5,93,76,43,28.90,28.67,13,3,13,0.17
2014-2-13,57.6,42.1,34.2,42.6,34.0,30.8,93,75,43,29.15,28.82,11,3,11,0.09
2014-2-14,44.6,37.4,32.8,38.2,33.7,30.3,92,87,77,29.07,28.81,10,2,12,0.13
2014-2-15,34.6,32.0,28.4,32.0,29.8,26.5,94,91,86,29.08,28.56,11,1,11,0.06
2014-2-16,52.0,37.6,29.5,41.0,31.6,27.5,94,80,49,29.02,28.67,8,2,8,0.57
2014-2-17,47.9,37.3,32.9,39.2,33.7,30.5,94,87,66,29.03,28.78,13,3,13,0.23
2014-2-18,41.4,34.2,28.6,38.5,31.5,26.5,93,90,78,29.05,28.65,9,2,9,0.17
2014-2-19,46.6,36.8,29.7,35.6,29.9,25.4,92,77,54,29.20,28.86,13,2,13,0.10
2014-2-20,51.1,37.6,29.0,35.5,30.4,25.8,93,76,49,29.18,29.00,23,4,23,0.01
2014-2-21,50.6,41.2,29.9,30.6,25.8,20.5,76,55,38,29.29,29.13,14,4,14,0.00
2014-2-22,41.4,31.9,24.3,29.6,25.4,20.3,90,77,60,29.29,29.17,10,2,10,0.00
2014-2-23,40.7,34.0,31.0,34.8,29.9,28.4,92,85,72,29.23,29.09,8,1,8,0.10
2014-2-24,34.6,31.7,29.9,30.0,28.2,26.6,91,87,73,29.41,29.23,7,1,8,0.05
2014-2-25,40.9,33.7,28.8,31.4,26.4,20.9,92,76,51,29.51,29.38,10,1,10,0.02
2014-2-26,47.9,37.1,31.5,31.6,27.6,22.1,86,70,41,29.38,28.98,9,1,9,0.00
2014-2-27,34.6,33.3,32.8,29.5,28.9,27.5,86,84,81,28.98,28.91,4,1,4,0.00
2014-3-15,62.6,39.0,41.4,39.0,4.2,-99.9,79,44,33,30.35,30.17,10,-230,12,0.00
2014-3-17,44.2,34.3,36.7,22.1,-2.1,-99.9,55,34,37,30.25,30.19,18,-184,30,0.00
2014-3-20,42.8,0.7,42.8,19.6,-97.9,-99.9,39,1,39,30.34,30.28,3,-983,7,0.00
2014-3-23,62.2,20.3,44.6,34.4,-51.3,-99.9,60,15,28,30.42,30.27,10,-620,11,0.00
2014-3-25,54.0,39.6,41.4,42.0,20.6,-99.9,85,68,61,29.70,29.62,9,-132,15,0.02
2014-3-27,55.2,40.6,43.3,33.8,11.9,-99.9,68,47,43,29.97,29.82,6,-156,10,0.00
2014-10-14,58.7,57.4,55.3,46.9,46.6,45.9,73,67,64,28.75,28.71,9,2,9,0.00
2014-10-15,65.7,53.7,43.6,54.5,47.9,40.0,93,81,65,29.10,28.67,8,1,8,0.09
2014-10-16,66.6,50.9,40.1,48.3,42.3,37.7,93,75,46,29.22,29.10,9,2,9,0.00
2014-10-17,58.9,49.9,45.5,51.8,45.8,40.1,92,86,72,29.12,28.98,5,1,5,0.14
2014-10-18,58.7,52.6,47.2,52.0,49.1,45.0,94,88,76,29.14,29.04,4,1,4,0.01
2014-10-19,73.8,58.7,50.4,55.7,51.7,47.3,92,79,52,29.09,28.87,5,1,5,0.00
2014-10-20,58.9,53.0,48.1,55.9,50.4,45.9,93,91,87,28.91,28.83,4,1,4,0.08
2014-10-21,69.7,53.2,43.4,52.9,45.9,41.5,95,79,45,29.03,28.91,8,1,8,0.00
2014-10-22,50.9,48.8,43.6,48.6,46.3,40.0,94,91,86,28.99,28.76,4,1,4,0.31
2014-10-23,63.2,50.2,45.0,51.8,44.8,39.3,95,83,50,29.11,28.80,8,2,8,0.03
2014-10-24,56.9,47.6,40.7,45.6,42.0,37.7,94,82,63,29.20,29.06,4,1,4,0.19
2014-10-25,57.1,49.9,45.9,51.7,46.7,44.3,95,89,76,29.06,28.51,8,1,8,0.04
2014-10-26,63.4,49.6,40.3,46.7,40.2,34.1,90,71,46,29.19,28.70,12,2,12,0.00
2014-10-27,60.1,45.1,36.4,42.0,36.0,32.0,87,72,40,29.29,29.18,9,2,9,0.00
2014-10-28,47.7,44.4,42.3,44.8,41.4,37.5,93,89,76,29.19,29.09,6,1,6,0.31
2014-10-29,61.2,47.8,38.0,49.3,43.3,36.1,95,85,62,29.28,29.10,5,1,5,0.00
2014-10-30,50.9,49.0,47.5,49.2,47.1,45.2,95,93,89,29.27,28.91,4,0,4,0.54
2014-10-31,55.3,50.1,45.4,53.6,48.2,42.3,96,93,81,28.92,28.81,7,1,7,0.34
2014-11-1,59.8,48.2,41.4,45.1,39.3,33.4,92,73,41,29.01,28.85,10,2,10,0.00
2014-11-2,63.7,49.1,38.5,41.5,37.5,32.6,85,66,39,29.19,29.01,6,2,9,0.00
2014-11-3,58.7,47.3,40.3,46.4,42.1,37.2,91,83,62,29.26,29.18,5,1,7,0.01
2014-11-4,67.7,52.0,45.4,52.3,44.4,38.9,94,77,37,29.38,29.07,16,2,16,0.06
2014-11-5,61.6,49.9,43.9,47.7,43.9,39.4,94,80,58,29.40,29.24,7,1,7,0.06
2014-11-6,62.3,52.0,44.3,53.2,46.0,34.1,95,81,47,29.29,28.97,9,1,9,0.01
2014-11-7,64.1,48.0,37.3,40.5,36.4,33.3,88,67,37,29.52,29.29,10,2,10,0.00
2014-11-8,58.9,42.3,34.0,43.9,36.4,31.9,92,81,53,29.50,29.12,6,1,6,0.00
2014-11-9,62.6,46.3,34.4,46.8,38.0,32.4,93,74,51,29.12,28.77,16,3,16,0.07
2014-11-10,59.2,43.3,34.0,37.5,31.2,24.4,88,65,29,29.33,29.06,8,2,8,0.00
2014-11-11,42.3,33.4,21.6,28.8,13.0,5.1,69,44,24,29.70,29.34,13,3,13,0.00
2014-11-12,41.0,25.5,16.6,15.7,9.9,4.9,78,55,25,29.71,29.48,10,1,10,0.00
2014-11-13,38.5,24.4,12.6,16.5,12.5,8.6,85,62,36,29.48,29.19,4,1,4,0.00
2014-11-14,48.1,27.2,15.1,19.2,12.8,8.8,80,57,28,29.48,29.21,5,1,5,0.00
2014-11-15,46.1,26.0,14.4,20.8,13.9,9.5,85,63,31,29.73,29.48,5,1,5,0.00
2014-11-16,42.1,25.2,15.1,21.7,15.3,9.8,84,68,40,29.79,29.71,8,1,8,0.00
2014-11-17,42.7,26.0,15.5,24.3,16.5,12.0,88,69,40,29.75,29.54,7,1,7,0.00
2014-11-18,41.0,26.5,16.2,23.3,18.4,12.3,87,73,46,29.54,29.40,5,1,5,0.00
2014-11-19,39.6,29.9,23.0,25.1,21.7,18.4,84,72,51,29.42,29.17,6,1,6,0.00
2014-11-20,44.8,33.9,27.7,30.2,25.9,22.1,87,73,53,29.21,29.14,10,2,10,0.00
2014-11-21,33.5,30.0,25.2,30.0,26.9,21.6,92,88,82,29.14,28.53,5,0,5,0.00
2014-11-22,46.1,37.5,27.5,38.8,33.4,25.3,93,85,74,29.17,28.55,10,2,10,0.45
2014-11-23,43.0,38.3,34.6,37.4,34.0,30.2,93,85,71,29.38,29.13,13,2,13,0.25
2014-11-24,52.2,38.3,31.3,39.7,32.8,28.4,93,81,58,29.47,29.14,5,1,5,0.05
2014-11-25,40.9,38.3,35.8,39.1,36.4,33.5,94,93,92,29.37,29.13,6,0,6,0.34
2014-11-26,41.9,38.4,36.7,39.1,36.2,34.8,94,92,87,29.32,29.06,2,0,2,0.02
2014-11-27,53.8,40.7,35.6,45.5,38.2,33.8,95,91,72,29.07,28.76,6,1,6,0.01
2014-11-28,57.2,44.7,37.1,49.1,40.0,30.4,96,84,68,28.76,28.38,13,2,13,0.03
2014-11-29,40.3,27.3,13.5,30.2,18.7,8.8,85,70,51,29.35,28.49,11,2,11,0.02
2014-11-30,32.4,18.8,10.6,18.6,11.0,5.9,89,72,48,29.53,29.35,7,1,7,0.01
2014-12-1,33.1,17.8,9.7,18.2,11.5,6.6,89,78,50,29.41,29.28,5,1,5,0.00
2014-12-2,35.3,19.1,10.1,21.8,13.4,7.2,90,80,53,29.48,29.33,5,1,5,0.00
2014-12-3,38.3,23.7,13.7,25.9,18.1,11.1,90,80,57,29.34,29.06,5,1,5,0.00
2014-12-4,37.4,32.4,29.2,28.3,26.2,23.5,85,78,67,29.24,29.06,3,0,3,0.00
2014-12-5,36.4,33.0,30.6,31.7,29.3,26.8,91,86,82,29.33,29.18,3,0,3,0.01
2014-12-6,49.1,37.0,32.6,40.8,33.6,30.5,94,88,68,29.41,29.10,4,1,4,0.16
2014-12-7,39.4,36.6,35.1,36.9,34.5,33.2,94,92,89,29.48,29.38,4,0,4,0.01
2014-12-8,42.1,38.3,36.0,38.4,35.9,34.1,94,91,86,29.38,29.20,4,1,4,0.00
2014-12-9,42.8,37.6,35.1,40.1,35.8,33.0,94,93,89,29.20,29.04,5,0,5,0.24
2014-12-10,41.2,38.6,36.5,39.7,37.0,34.9,95,94,93,29.04,28.55,9,1,9,0.10
2014-12-11,40.0,37.9,35.5,38.3,36.5,34.0,96,95,93,28.76,28.44,5,1,6,0.24
2014-12-12,48.1,39.8,35.3,42.0,37.1,33.6,96,90,76,29.07,28.65,8,2,8,0.00
2014-12-13,58.0,39.6,30.6,41.4,33.5,28.4,91,80,49,29.38,29.07,8,2,8,0.00
2014-12-14,39.8,30.2,24.5,35.8,27.8,22.2,93,91,76,29.45,29.35,7,1,7,0.02
2014-12-15,38.2,33.6,29.9,32.7,30.5,28.1,93,88,79,29.35,29.14,5,0,5,0.00
2014-12-16,40.0,36.0,32.8,37.1,33.7,30.7,94,91,87,29.13,29.07,2,0,3,0.07
2014-12-17,36.5,34.9,32.6,35.2,33.4,31.1,95,94,93,29.11,29.05,3,0,3,0.19
2014-12-18,40.3,37.0,34.7,38.3,35.3,33.4,95,94,90,29.14,29.00,3,0,3,0.06
2014-12-19,50.6,37.6,32.2,40.9,34.6,30.7,95,89,68,29.12,28.98,6,1,6,0.09
2014-12-20,36.4,34.4,32.6,35.0,32.9,31.1,95,95,94,29.09,28.59,4,0,4,0.47
2014-12-21,44.1,39.1,33.3,42.2,37.4,32.0,96,94,89,29.17,28.61,10,3,10,0.64
2014-12-22,55.4,42.8,37.6,39.3,34.5,31.0,93,74,42,29.49,29.17,10,3,10,0.01
2014-12-23,51.7,38.3,33.7,39.1,33.4,30.5,90,83,57,29.48,29.03,5,1,5,0.00
2014-12-24,52.7,40.9,33.8,35.4,31.0,24.9,93,70,37,29.04,28.83,11,2,11,0.00
2014-12-25,52.9,38.7,31.7,31.8,26.3,21.7,78,63,31,29.32,29.04,10,4,10,0.00
2014-12-26,49.0,33.5,27.7,30.7,25.3,22.6,87,73,48,29.43,29.32,8,2,8,0.00
2014-12-27,45.7,33.0,26.6,33.9,28.4,23.0,93,84,57,29.38,29.04,7,1,7,0.14
2014-12-28,45.0,35.0,30.1,39.1,31.5,28.1,93,87,69,29.30,29.08,5,1,5,0.01
2014-12-29,34.7,31.9,26.8,31.2,23.6,13.3,93,72,53,29.89,29.30,10,3,10,0.00
2014-12-30,36.2,20.4,13.0,20.3,12.5,9.5,87,72,45,30.05,29.88,8,1,10,0.01
2014-12-31,34.6,18.6,11.2,21.2,11.9,7.7,89,76,50,29.90,29.65,5,1,5,0.02
2015-1-1,33.1,17.9,10.1,20.4,12.0,6.9,89,79,53,29.66,29.47,7,1,7,0.01
2015-1-2,33.5,21.7,16.4,21.3,15.6,13.1,88,78,55,29.47,29.18,7,1,7,0.00